Time;durP1;ratioP1;P1;durP2;ratioP2;P2;SDS_P1;SDS_P2;PMS_P1;PMS_P2;Temp;Humidity;BMP_temperature;BMP_pressure;BME280_temperature;BME280_humidity;BME280_pressure;Samples;Min_cycle;Max_cycle;Signal;HPM_P1;HPM_P2
2022/06/05 00:02:19;;;;;;;5.70;3.60;;;18.70;99.90;;;;;;5093136;28;20203;-47
2022/06/05 00:04:52;;;;;;;5.07;4.00;;;18.70;99.90;;;;;;5093387;28;20158;-47
2022/06/05 00:07:39;;;;;;;4.77;3.77;;;18.60;99.90;;;;;;5093589;28;20159;-48
2022/06/05 00:10:13;;;;;;;6.17;4.30;;;18.60;99.90;;;;;;5093512;28;20689;-49
2022/06/05 00:12:42;;;;;;;4.17;3.77;;;18.60;99.90;;;;;;5093456;28;20164;-47
2022/06/05 00:15:09;;;;;;;6.10;4.40;;;18.60;99.90;;;;;;5074975;28;20599;-47
2022/06/05 00:17:35;;;;;;;4.50;4.10;;;18.60;99.90;;;;;;5093395;28;20167;-50
2022/06/05 00:20:00;;;;;;;7.70;4.43;;;18.60;99.90;;;;;;5093530;28;20540;-47
2022/06/05 00:22:26;;;;;;;5.47;4.20;;;18.60;99.90;;;;;;5092964;28;20186;-48
2022/06/05 00:24:52;;;;;;;5.13;4.37;;;18.60;99.90;;;;;;5075106;28;20181;-46
2022/06/05 00:27:38;;;;;;;4.87;4.37;;;18.50;99.90;;;;;;5093311;28;20638;-46
2022/06/05 00:30:06;;;;;;;6.17;4.20;;;18.50;99.90;;;;;;5093465;28;20160;-47
2022/06/05 00:32:52;;;;;;;4.90;4.50;;;18.50;99.90;;;;;;5097005;28;20179;-47
2022/06/05 00:35:21;;;;;;;4.80;4.10;;;18.40;99.90;;;;;;5097065;28;20167;-48
2022/06/05 00:38:12;;;;;;;4.53;4.13;;;18.40;99.90;;;;;;5096904;28;20256;-48
2022/06/05 00:40:51;;;;;;;6.23;5.10;;;18.30;99.90;;;;;;5097013;28;20155;-47
2022/06/05 00:43:19;;;;;;;5.93;4.40;;;18.30;99.90;;;;;;5096468;28;20197;-48
2022/06/05 00:45:45;;;;;;;5.00;4.47;;;18.30;99.90;;;;;;5096685;28;20171;-48
2022/06/05 00:48:12;;;;;;;6.23;4.83;;;18.20;99.90;;;;;;5096599;28;20199;-48
2022/06/05 00:50:39;;;;;;;5.30;4.80;;;18.20;99.90;;;;;;5096562;28;20170;-48
2022/06/05 00:53:07;;;;;;;6.67;4.50;;;18.10;99.90;;;;;;5078951;28;20179;-47
2022/06/05 00:55:43;;;;;;;6.27;4.53;;;18.10;99.90;;;;;;5096821;28;20677;-46
2022/06/05 00:58:09;;;;;;;4.80;4.40;;;18.10;99.90;;;;;;5096280;28;20197;-48
2022/06/05 01:00:38;;;;;;;5.53;4.60;;;18.00;99.90;;;;;;5096010;28;20199;-48
2022/06/05 01:03:07;;;;;;;5.60;5.03;;;18.00;99.90;;;;;;5096397;28;20230;-49
2022/06/05 01:05:33;;;;;;;5.70;5.10;;;17.90;99.90;;;;;;5096245;28;20171;-48
2022/06/05 01:07:59;;;;;;;5.90;5.07;;;18.00;99.90;;;;;;5096374;28;20191;-48
2022/06/05 01:10:57;;;;;;;4.93;4.53;;;17.90;99.90;;;;;;5078135;28;20704;-47
2022/06/05 01:13:49;;;;;;;5.37;4.87;;;17.90;99.90;;;;;;5061619;28;20198;-46
2022/06/05 01:16:29;;;;;;;6.30;5.43;;;17.90;99.90;;;;;;5064470;28;20213;-46
2022/06/05 01:19:17;;;;;;;7.73;5.43;;;17.80;99.90;;;;;;5096636;28;20264;-48
2022/06/05 01:22:10;;;;;;;5.40;5.00;;;17.80;99.90;;;;;;5078526;28;20175;-47
2022/06/05 01:24:42;;;;;;;7.10;5.43;;;17.80;99.90;;;;;;5096016;28;20280;-48
2022/06/05 01:27:12;;;;;;;5.30;4.77;;;17.70;99.90;;;;;;5095847;28;20627;-47
2022/06/05 01:29:49;;;;;;;5.87;5.17;;;17.70;99.90;;;;;;5077656;28;20542;-47
2022/06/05 01:32:28;;;;;;;6.37;4.97;;;17.60;99.90;;;;;;5095912;28;20273;-47
2022/06/05 01:34:59;;;;;;;6.17;5.57;;;17.60;99.90;;;;;;5095689;28;20169;-48
2022/06/05 01:37:34;;;;;;;5.33;4.83;;;17.60;99.90;;;;;;5095692;28;20175;-46
2022/06/05 01:40:06;;;;;;;6.13;5.53;;;17.60;99.90;;;;;;5095751;28;20228;-49
2022/06/05 01:42:36;;;;;;;5.73;5.13;;;17.60;99.90;;;;;;5076967;28;20178;-48
2022/06/05 01:45:12;;;;;;;5.77;5.07;;;17.60;99.90;;;;;;5095620;28;20193;-47
2022/06/05 01:47:43;;;;;;;5.40;4.90;;;17.70;99.90;;;;;;5095675;28;20155;-46
2022/06/05 01:50:15;;;;;;;7.03;5.20;;;17.70;99.90;;;;;;5078014;28;20189;-48
2022/06/05 01:52:55;;;;;;;5.13;4.63;;;17.70;99.90;;;;;;5095692;28;20514;-46
2022/06/05 01:55:30;;;;;;;11.90;5.40;;;17.80;99.90;;;;;;5095634;28;20175;-46
2022/06/05 01:58:00;;;;;;;5.53;5.03;;;17.80;99.90;;;;;;5095233;28;20255;-47
2022/06/05 02:00:26;;;;;;;5.50;5.00;;;17.80;99.90;;;;;;5095126;28;20657;-47
2022/06/05 02:03:04;;;;;;;5.13;4.70;;;17.90;99.90;;;;;;5095172;28;20241;-48
2022/06/05 02:05:38;;;;;;;5.70;5.07;;;17.90;99.90;;;;;;5095143;28;20190;-48
2022/06/05 02:08:19;;;;;;;5.77;5.13;;;17.90;99.90;;;;;;5095334;28;20205;-48
2022/06/05 02:10:54;;;;;;;4.60;4.30;;;18.00;99.90;;;;;;5095217;28;20224;-48
2022/06/05 02:13:20;;;;;;;5.47;4.87;;;18.00;99.90;;;;;;5094917;28;20544;-48
2022/06/05 02:15:47;;;;;;;6.63;4.87;;;18.10;99.90;;;;;;5094957;28;20185;-47
2022/06/05 02:18:13;;;;;;;9.17;5.83;;;18.10;99.90;;;;;;5095011;28;20230;-46
2022/06/05 02:20:40;;;;;;;6.47;5.57;;;18.20;99.90;;;;;;5095225;28;20190;-47
2022/06/05 02:23:14;;;;;;;8.17;5.57;;;18.20;99.90;;;;;;5094813;28;20203;-47
2022/06/05 02:25:40;;;;;;;5.67;5.07;;;18.20;99.90;;;;;;5094730;28;20167;-46
2022/06/05 02:28:11;;;;;;;8.47;5.63;;;18.20;99.90;;;;;;5094589;28;20190;-46
2022/06/05 02:31:00;;;;;;;6.93;5.17;;;18.20;99.90;;;;;;5094974;28;20254;-47
2022/06/05 02:33:25;;;;;;;5.33;4.83;;;18.20;99.90;;;;;;5095272;28;20166;-46
2022/06/05 02:36:41;;;;;;;9.10;5.23;;;18.20;99.90;;;;;;5094685;28;20179;-47
2022/06/05 02:39:29;;;;;;;5.70;5.20;;;18.20;99.90;;;;;;5012590;28;20209;-48
2022/06/05 02:42:18;;;;;;;6.23;4.87;;;18.20;99.90;;;;;;5012977;28;20165;-48
2022/06/05 02:45:13;;;;;;;10.00;5.27;;;18.20;99.90;;;;;;5076853;28;20206;-48
2022/06/05 02:47:50;;;;;;;5.50;4.93;;;18.10;99.90;;;;;;5095432;28;20202;-47
2022/06/05 02:50:26;;;;;;;5.30;4.80;;;18.20;99.90;;;;;;5094614;28;20211;-45
2022/06/05 02:53:00;;;;;;;5.60;4.83;;;18.20;99.90;;;;;;5093924;28;20275;-46
2022/06/05 02:55:26;;;;;;;6.40;4.87;;;18.20;99.90;;;;;;5094505;28;20561;-45
2022/06/05 02:57:51;;;;;;;7.60;4.70;;;18.10;99.90;;;;;;5094115;28;20240;-46
2022/06/05 03:00:21;;;;;;;7.13;4.87;;;18.10;99.90;;;;;;5094529;28;20593;-47
2022/06/05 03:05:32;;;;;;;6.63;5.23;;;18.00;99.90;;;;;;5094775;28;20170;-48
2022/06/05 03:07:58;;;;;;;6.27;5.10;;;18.00;99.90;;;;;;5093908;28;20263;-48
2022/06/05 03:10:23;;;;;;;5.87;5.00;;;18.00;99.90;;;;;;5093987;28;20175;-47
2022/06/05 03:12:49;;;;;;;5.20;4.70;;;18.00;99.90;;;;;;5075796;28;20210;-48
2022/06/05 03:15:15;;;;;;;5.60;5.10;;;17.90;99.90;;;;;;5093763;28;20182;-46
2022/06/05 03:17:42;;;;;;;6.03;5.43;;;17.90;99.90;;;;;;5093960;28;20650;-45
2022/06/05 03:20:09;;;;;;;6.97;4.90;;;17.90;99.90;;;;;;5093728;28;20205;-47
2022/06/05 03:22:36;;;;;;;7.13;5.03;;;17.90;99.90;;;;;;5094088;28;20231;-47
2022/06/05 03:25:02;;;;;;;5.60;5.00;;;17.90;99.90;;;;;;5093930;28;20193;-46
2022/06/05 03:27:30;;;;;;;8.27;5.00;;;17.80;99.90;;;;;;5093639;28;20666;-49
2022/06/05 03:29:56;;;;;;;5.10;4.70;;;17.80;99.90;;;;;;5093542;28;20195;-48
2022/06/05 03:32:22;;;;;;;6.47;4.60;;;17.80;99.90;;;;;;5093873;28;20262;-48
2022/06/05 03:34:48;;;;;;;5.33;4.47;;;17.80;99.90;;;;;;5093828;28;20724;-46
2022/06/05 03:37:13;;;;;;;4.83;4.43;;;17.80;99.90;;;;;;5093555;28;20539;-47
2022/06/05 03:39:39;;;;;;;4.97;4.53;;;17.80;99.90;;;;;;5093400;28;20206;-47
2022/06/05 03:42:06;;;;;;;6.87;4.87;;;17.70;99.90;;;;;;5093772;28;20182;-47
2022/06/05 03:44:36;;;;;;;4.93;4.53;;;17.70;99.90;;;;;;5093599;28;20249;-46
2022/06/05 03:47:02;;;;;;;5.77;5.00;;;17.70;99.90;;;;;;5093983;28;20228;-49
2022/06/05 03:49:28;;;;;;;6.13;4.93;;;17.70;99.90;;;;;;5093731;28;20226;-46
2022/06/05 03:51:53;;;;;;;5.83;4.90;;;17.70;99.90;;;;;;5093916;28;20666;-46
2022/06/05 03:54:19;;;;;;;5.67;5.10;;;17.60;99.90;;;;;;5093763;28;20185;-46
2022/06/05 03:56:44;;;;;;;6.77;4.57;;;17.60;99.90;;;;;;5075301;28;20213;-47
2022/06/05 03:59:10;;;;;;;5.77;4.50;;;17.60;99.90;;;;;;5093428;28;20195;-47
2022/06/05 04:01:36;;;;;;;6.40;5.07;;;17.60;99.90;;;;;;5093413;28;20656;-48
2022/06/05 04:04:01;;;;;;;5.57;5.07;;;17.60;99.90;;;;;;5093718;28;20222;-47
2022/06/05 04:06:29;;;;;;;5.50;4.93;;;17.50;99.90;;;;;;5097829;28;20240;-48
2022/06/05 04:09:03;;;;;;;4.97;4.47;;;17.60;99.90;;;;;;5097713;28;20217;-47
2022/06/05 04:11:30;;;;;;;4.87;4.47;;;17.60;99.90;;;;;;5097681;28;20156;-45
2022/06/05 04:13:57;;;;;;;5.30;4.80;;;17.50;99.90;;;;;;5097627;28;20563;-47
2022/06/05 04:16:25;;;;;;;4.63;4.23;;;17.50;99.90;;;;;;5097980;28;20363;-46
2022/06/05 04:18:51;;;;;;;4.37;3.97;;;17.50;99.90;;;;;;5098007;28;20202;-46
2022/06/05 04:21:36;;;;;;;6.23;4.50;;;17.50;99.90;;;;;;5097500;28;20183;-47
2022/06/05 04:24:03;;;;;;;5.57;4.50;;;17.60;99.90;;;;;;5097417;28;20611;-47
2022/06/05 04:26:32;;;;;;;5.23;4.20;;;17.50;99.90;;;;;;5097092;28;20539;-47
2022/06/05 04:28:58;;;;;;;5.17;4.50;;;17.60;99.90;;;;;;5078654;28;20198;-47
2022/06/05 04:31:35;;;;;;;13.33;4.90;;;17.60;99.90;;;;;;5096922;28;20175;-48
2022/06/05 04:34:09;;;;;;;5.30;4.80;;;17.60;99.90;;;;;;5096879;28;20175;-45
2022/06/05 04:36:35;;;;;;;5.43;4.97;;;17.70;99.90;;;;;;5097113;28;20167;-46
2022/06/05 04:39:02;;;;;;;5.97;4.57;;;17.70;99.90;;;;;;5096706;28;20268;-47
2022/06/05 04:41:27;;;;;;;5.30;4.80;;;17.70;99.90;;;;;;5096633;28;20708;-47
2022/06/05 04:43:55;;;;;;;6.33;4.70;;;17.70;99.90;;;;;;5096243;28;20273;-47
2022/06/05 04:46:22;;;;;;;4.90;4.30;;;17.70;99.90;;;;;;5096609;28;20179;-47
2022/06/05 04:48:48;;;;;;;5.40;4.83;;;17.80;99.90;;;;;;5096237;28;20218;-45
2022/06/05 04:51:15;;;;;;;5.70;5.20;;;17.80;99.90;;;;;;5096324;28;20179;-47
2022/06/05 04:53:41;;;;;;;5.20;4.50;;;17.80;99.90;;;;;;5097007;28;20231;-47
2022/06/05 04:56:10;;;;;;;5.23;4.60;;;17.90;99.90;;;;;;5096100;28;20190;-47
2022/06/05 04:58:36;;;;;;;4.60;4.20;;;17.90;99.90;;;;;;5096274;28;20202;-48
2022/06/05 05:01:08;;;;;;;5.17;4.67;;;17.90;99.90;;;;;;5096445;28;20257;-47
2022/06/05 05:03:34;;;;;;;5.23;4.73;;;17.90;99.90;;;;;;5096224;28;20214;-46
2022/06/05 05:05:59;;;;;;;5.00;4.60;;;17.90;99.90;;;;;;5095970;28;20171;-46
2022/06/05 05:08:25;;;;;;;5.43;4.53;;;17.90;99.90;;;;;;5096152;28;20198;-47
2022/06/05 05:10:50;;;;;;;6.03;4.90;;;17.90;99.90;;;;;;5096121;28;20173;-45
2022/06/05 05:13:16;;;;;;;4.93;4.50;;;18.00;99.90;;;;;;5095749;28;20639;-47
2022/06/05 05:15:42;;;;;;;5.40;4.90;;;18.00;99.90;;;;;;5095663;28;20224;-47
2022/06/05 05:18:07;;;;;;;4.43;4.07;;;18.00;99.90;;;;;;5095352;28;20194;-46
2022/06/05 05:20:33;;;;;;;5.20;4.80;;;18.10;99.90;;;;;;5095766;28;20552;-46
2022/06/05 05:22:58;;;;;;;5.83;4.73;;;18.10;99.90;;;;;;5096107;28;20238;-48
2022/06/05 05:25:25;;;;;;;6.67;4.70;;;18.10;99.90;;;;;;5095482;28;20183;-47
2022/06/05 05:27:51;;;;;;;5.53;4.90;;;18.20;99.90;;;;;;5095421;28;20202;-47
2022/06/05 05:30:16;;;;;;;5.57;5.07;;;18.20;99.90;;;;;;5096153;28;20182;-47
2022/06/05 05:32:42;;;;;;;5.33;4.70;;;18.20;99.90;;;;;;5095663;28;20182;-47
2022/06/05 05:35:09;;;;;;;5.63;5.03;;;18.30;99.90;;;;;;5095758;28;20523;-47
2022/06/05 05:37:34;;;;;;;8.47;5.10;;;18.30;99.90;;;;;;5095517;28;20190;-47
2022/06/05 05:42:44;;;;;;;5.33;4.83;;;18.40;99.90;;;;;;5095461;28;20205;-47
2022/06/05 05:45:10;;;;;;;5.00;4.50;;;18.40;99.90;;;;;;5095190;28;20171;-46
2022/06/05 05:47:36;;;;;;;5.53;5.00;;;18.40;99.90;;;;;;5095009;28;20175;-48
2022/06/05 05:50:10;;;;;;;8.60;4.70;;;18.40;99.90;;;;;;5095355;28;20262;-47
2022/06/05 05:52:36;;;;;;;5.07;4.57;;;18.40;99.90;;;;;;5095443;28;20606;-47
2022/06/05 05:55:01;;;;;;;5.60;4.87;;;18.50;99.90;;;;;;5095237;28;20660;-46
2022/06/05 05:57:27;;;;;;;5.53;5.03;;;18.50;99.90;;;;;;5095085;28;20171;-47
2022/06/05 05:59:53;;;;;;;7.77;4.70;;;18.50;99.90;;;;;;5094839;28;20274;-47
2022/06/05 06:02:21;;;;;;;5.37;4.87;;;18.60;99.90;;;;;;5094835;28;20164;-46
2022/06/05 06:04:48;;;;;;;6.83;4.60;;;18.60;99.90;;;;;;5095502;28;20187;-46
2022/06/05 06:07:15;;;;;;;6.13;4.73;;;18.70;99.90;;;;;;5095076;28;20171;-47
2022/06/05 06:09:41;;;;;;;5.13;4.63;;;18.70;99.90;;;;;;5094891;28;20233;-47
2022/06/05 06:12:08;;;;;;;5.23;4.83;;;18.70;99.90;;;;;;5095026;28;20183;-47
2022/06/05 06:14:34;;;;;;;10.10;5.00;;;18.80;99.90;;;;;;5094709;28;20266;-48
2022/06/05 06:16:59;;;;;;;5.30;4.80;;;18.80;99.90;;;;;;5094799;28;20206;-47
2022/06/05 06:19:25;;;;;;;5.33;4.83;;;18.80;99.90;;;;;;5076299;28;20213;-47
2022/06/05 06:21:51;;;;;;;6.70;4.87;;;18.90;99.90;;;;;;5094635;28;20187;-47
2022/06/05 06:24:17;;;;;;;6.60;4.90;;;18.90;99.90;;;;;;5094620;28;20215;-47
2022/06/05 06:26:42;;;;;;;5.53;5.03;;;18.90;99.90;;;;;;5094362;28;20268;-48
2022/06/05 06:29:09;;;;;;;5.97;5.20;;;19.00;99.90;;;;;;5094533;28;20203;-47
2022/06/05 06:31:35;;;;;;;6.77;4.83;;;19.00;99.90;;;;;;5094362;28;20179;-47
2022/06/05 06:34:01;;;;;;;8.73;5.13;;;19.00;99.90;;;;;;5094425;28;20179;-48
2022/06/05 06:36:27;;;;;;;6.23;5.20;;;19.10;99.90;;;;;;5094507;28;20631;-48
2022/06/05 06:38:53;;;;;;;5.80;4.97;;;19.00;99.90;;;;;;5094391;28;20219;-47
2022/06/05 06:41:20;;;;;;;5.63;5.13;;;19.10;99.90;;;;;;5095426;28;20265;-46
2022/06/05 06:43:47;;;;;;;7.07;5.80;;;19.10;99.90;;;;;;5094818;28;20202;-48
2022/06/05 06:46:14;;;;;;;6.10;5.13;;;19.20;99.90;;;;;;5094222;28;20642;-48
2022/06/05 06:48:40;;;;;;;5.63;5.13;;;19.20;99.90;;;;;;5075743;28;20206;-48
2022/06/05 06:51:06;;;;;;;6.40;5.00;;;19.20;99.90;;;;;;5093885;28;20237;-47
2022/06/05 06:53:34;;;;;;;5.63;4.67;;;19.30;99.90;;;;;;5094254;28;20285;-47
2022/06/05 06:56:05;;;;;;;6.87;4.87;;;19.30;99.90;;;;;;5094146;28;20175;-46
2022/06/05 06:58:30;;;;;;;5.83;5.20;;;19.30;99.90;;;;;;5094028;28;20286;-49
2022/06/05 07:00:56;;;;;;;6.03;4.93;;;19.30;99.90;;;;;;5093674;28;20522;-47
2022/06/05 07:03:22;;;;;;;5.03;4.57;;;19.30;99.90;;;;;;5094009;28;20245;-48
2022/06/05 07:05:47;;;;;;;4.90;4.50;;;19.40;99.90;;;;;;5093776;28;20187;-49
2022/06/05 07:08:13;;;;;;;6.23;4.80;;;19.40;99.90;;;;;;5093663;28;20207;-47
2022/06/05 07:10:38;;;;;;;5.70;4.63;;;19.40;99.90;;;;;;5093867;28;20183;-47
2022/06/05 07:13:04;;;;;;;5.23;4.77;;;19.40;99.90;;;;;;5093873;28;20190;-46
2022/06/05 07:15:34;;;;;;;5.50;5.00;;;19.50;99.90;;;;;;5094126;28;20673;-48
2022/06/05 07:18:07;;;;;;;5.90;5.30;;;19.50;99.90;;;;;;5093306;28;20210;-46
2022/06/05 07:20:34;;;;;;;5.70;5.20;;;19.60;99.90;;;;;;5093740;28;20190;-48
2022/06/05 07:23:01;;;;;;;6.17;5.00;;;19.60;99.90;;;;;;5093642;28;20209;-48
2022/06/05 07:25:26;;;;;;;6.07;5.53;;;19.70;99.90;;;;;;5093726;28;20186;-48
2022/06/05 07:27:52;;;;;;;6.47;4.90;;;19.80;99.90;;;;;;5093370;28;20685;-48
2022/06/05 07:30:17;;;;;;;5.47;4.83;;;19.90;99.90;;;;;;5093316;28;20189;-48
2022/06/05 07:32:43;;;;;;;5.77;5.27;;;20.00;99.90;;;;;;5093898;28;20182;-47
2022/06/05 07:35:12;;;;;;;5.70;4.77;;;20.20;99.90;;;;;;5093518;28;20254;-47
2022/06/05 07:37:38;;;;;;;5.83;5.17;;;20.30;99.90;;;;;;5093464;28;20186;-47
2022/06/05 07:40:04;;;;;;;6.40;5.40;;;20.40;99.90;;;;;;5097304;28;20178;-48
2022/06/05 07:42:30;;;;;;;5.93;5.33;;;20.50;99.90;;;;;;5099861;28;20179;-47
2022/06/05 07:44:56;;;;;;;10.00;5.07;;;20.60;99.90;;;;;;5099978;28;20546;-47
2022/06/05 07:47:21;;;;;;;5.63;4.83;;;20.80;99.90;;;;;;5099993;28;20216;-49
2022/06/05 07:49:47;;;;;;;10.47;4.90;;;20.80;99.90;;;;;;5099853;28;20195;-49
2022/06/05 07:54:58;;;;;;;5.47;4.97;;;21.00;99.90;;;;;;5100000;28;20268;-46
2022/06/05 07:57:23;;;;;;;6.87;5.70;;;21.00;99.90;;;;;;5099894;28;20229;-47
2022/06/05 07:59:50;;;;;;;5.47;4.97;;;21.10;99.90;;;;;;5099758;28;20211;-48
2022/06/05 08:02:24;;;;;;;6.77;5.47;;;21.20;99.90;;;;;;5100095;28;20198;-46
2022/06/05 08:04:51;;;;;;;6.80;5.30;;;21.20;99.90;;;;;;5099979;28;20198;-47
2022/06/05 08:07:19;;;;;;;5.17;4.77;;;21.20;99.90;;;;;;5099882;28;20711;-49
2022/06/05 08:09:46;;;;;;;5.77;5.27;;;21.20;99.90;;;;;;5099929;28;20202;-47
2022/06/05 08:12:13;;;;;;;6.20;5.13;;;21.20;99.90;;;;;;5081483;28;20210;-47
2022/06/05 08:14:41;;;;;;;6.00;5.40;;;21.20;99.90;;;;;;5099717;28;20183;-48
2022/06/05 08:17:10;;;;;;;5.70;5.10;;;21.20;99.90;;;;;;5099670;28;20519;-47
2022/06/05 08:19:38;;;;;;;5.83;5.10;;;21.30;99.90;;;;;;5099623;28;20688;-47
2022/06/05 08:22:04;;;;;;;5.50;5.00;;;21.20;99.90;;;;;;5099648;28;20685;-48
2022/06/05 08:24:30;;;;;;;7.20;5.07;;;21.20;99.90;;;;;;5099526;28;20206;-47
2022/06/05 08:26:55;;;;;;;8.23;5.80;;;21.10;99.90;;;;;;5099816;28;20178;-48
2022/06/05 08:29:21;;;;;;;6.00;5.40;;;21.10;99.90;;;;;;5081397;28;20230;-48
2022/06/05 08:31:47;;;;;;;6.40;5.00;;;21.10;99.90;;;;;;5100048;28;20181;-48
2022/06/05 08:34:14;;;;;;;5.63;5.13;;;21.00;99.90;;;;;;5099818;28;20208;-49
2022/06/05 08:36:40;;;;;;;5.50;5.10;;;20.90;99.90;;;;;;5099500;28;20198;-48
2022/06/05 08:42:02;;;;;;;8.53;5.50;;;20.90;99.90;;;;;;5099522;28;20213;-48
2022/06/05 08:44:33;;;;;;;6.03;5.43;;;20.80;99.90;;;;;;5099572;28;20285;-48
2022/06/05 08:47:15;;;;;;;6.43;5.70;;;20.80;99.90;;;;;;5099322;28;20588;-48
2022/06/05 08:50:20;;;;;;;5.80;5.30;;;20.70;99.90;;;;;;5100111;28;20198;-48
2022/06/05 08:53:22;;;;;;;11.87;5.97;;;20.70;99.90;;;;;;5095244;28;20163;-47
2022/06/05 08:55:52;;;;;;;6.37;5.37;;;20.70;99.90;;;;;;5096416;28;20158;-48
2022/06/05 08:58:31;;;;;;;7.03;5.90;;;20.70;99.90;;;;;;5096278;28;20199;-48
2022/06/05 09:01:08;;;;;;;6.27;5.67;;;20.60;99.90;;;;;;5095980;28;20193;-48
2022/06/05 09:03:43;;;;;;;5.77;5.27;;;20.50;99.90;;;;;;5095952;28;20304;-48
2022/06/05 09:06:27;;;;;;;8.23;5.90;;;20.50;99.90;;;;;;5095943;28;20204;-48
2022/06/05 09:08:56;;;;;;;5.93;4.90;;;20.40;99.90;;;;;;5095977;28;20190;-49
2022/06/05 09:11:27;;;;;;;7.07;5.80;;;20.20;99.90;;;;;;5096074;28;20323;-49
2022/06/05 09:14:04;;;;;;;6.70;6.00;;;20.10;99.90;;;;;;5096070;28;20159;-48
2022/06/05 09:16:34;;;;;;;7.50;6.10;;;20.00;99.90;;;;;;5096082;28;20159;-47
2022/06/05 09:19:02;;;;;;;6.13;5.53;;;19.90;99.90;;;;;;5095739;28;20195;-49
2022/06/05 09:22:23;;;;;;;6.60;5.93;;;19.80;99.90;;;;;;5078280;28;20178;-49
2022/06/05 09:25:09;;;;;;;6.90;5.73;;;19.60;99.90;;;;;;5095521;28;20203;-48
2022/06/05 09:28:09;;;;;;;6.43;5.87;;;19.60;99.90;;;;;;5095757;28;20364;-45
2022/06/05 09:31:12;;;;;;;8.67;6.00;;;19.50;99.90;;;;;;5096026;28;20160;-45
2022/06/05 09:33:41;;;;;;;6.73;6.07;;;19.50;99.90;;;;;;5046743;28;20194;-43
2022/06/05 09:36:15;;;;;;;6.73;6.13;;;19.50;99.90;;;;;;5095442;28;20643;-45
2022/06/05 09:38:45;;;;;;;7.00;6.30;;;19.50;99.90;;;;;;5077191;28;20248;-43
2022/06/05 09:41:50;;;;;;;7.23;6.53;;;19.50;99.90;;;;;;5095574;28;20171;-42
2022/06/05 09:44:18;;;;;;;6.17;5.63;;;19.50;99.90;;;;;;5094870;28;20613;-44
2022/06/05 09:46:54;;;;;;;9.77;6.50;;;19.50;99.90;;;;;;5095406;28;20602;-44
2022/06/05 09:49:35;;;;;;;6.57;5.97;;;19.50;99.90;;;;;;5095426;28;20194;-45
2022/06/05 09:52:18;;;;;;;7.23;6.53;;;19.40;99.90;;;;;;5095507;28;20159;-44
2022/06/05 09:54:48;;;;;;;7.13;6.43;;;19.30;99.90;;;;;;5095541;28;20199;-44
2022/06/05 10:00:18;;;;;;;7.20;6.60;;;19.30;99.90;;;;;;5095312;28;20198;-43
2022/06/05 10:02:48;;;;;;;12.77;7.53;;;19.20;99.90;;;;;;5094828;28;20305;-43
2022/06/05 10:05:32;;;;;;;8.00;6.53;;;19.30;99.90;;;;;;5095083;28;20210;-43
2022/06/05 10:08:27;;;;;;;7.17;6.47;;;19.30;99.90;;;;;;5094698;28;20210;-44
2022/06/05 10:10:59;;;;;;;8.07;7.37;;;19.40;99.90;;;;;;5095020;28;20159;-43
2022/06/05 10:13:43;;;;;;;8.60;7.77;;;19.30;99.90;;;;;;5076488;28;20190;-41
2022/06/05 10:16:15;;;;;;;7.63;6.83;;;19.40;99.90;;;;;;5095029;28;20212;-42
2022/06/05 10:18:52;;;;;;;8.17;7.47;;;19.40;99.90;;;;;;5076383;28;20202;-41
2022/06/05 10:21:21;;;;;;;8.70;7.97;;;19.40;99.90;;;;;;5094812;28;20253;-42
2022/06/05 10:23:51;;;;;;;11.63;7.67;;;19.40;99.90;;;;;;5094642;28;20210;-42
2022/06/05 10:26:29;;;;;;;9.30;8.40;;;19.50;99.90;;;;;;5094674;28;20207;-43
2022/06/05 10:29:26;;;;;;;8.47;7.67;;;19.50;99.90;;;;;;5094569;28;20190;-45
2022/06/05 10:32:00;;;;;;;9.57;8.67;;;19.60;99.90;;;;;;5095676;28;20171;-42
2022/06/05 10:34:51;;;;;;;9.00;8.30;;;19.70;99.90;;;;;;5094544;28;20170;-42
2022/06/05 10:37:25;;;;;;;11.13;8.47;;;19.80;99.90;;;;;;5094528;28;20163;-41
2022/06/05 10:40:17;;;;;;;9.23;8.33;;;19.90;99.90;;;;;;5094279;28;20182;-43
2022/06/05 10:42:59;;;;;;;8.73;7.93;;;19.90;99.90;;;;;;5094356;28;20210;-41
2022/06/05 10:45:39;;;;;;;9.47;8.57;;;20.00;99.90;;;;;;5094395;28;20247;-41
2022/06/05 10:48:37;;;;;;;9.20;8.40;;;19.90;99.90;;;;;;5094393;28;20194;-43
2022/06/05 10:51:16;;;;;;;9.50;8.70;;;19.90;99.90;;;;;;5094191;28;20167;-43
2022/06/05 10:53:59;;;;;;;11.80;8.73;;;19.90;99.90;;;;;;5094404;28;20171;-42
2022/06/05 10:56:54;;;;;;;9.23;8.43;;;19.80;99.90;;;;;;5094453;28;20163;-44
2022/06/05 10:59:59;;;;;;;8.87;8.00;;;19.80;99.90;;;;;;5093819;28;20570;-43
2022/06/05 11:02:51;;;;;;;9.73;8.80;;;19.90;99.90;;;;;;5094168;28;20182;-43
2022/06/05 11:05:38;;;;;;;9.20;8.30;;;20.00;99.90;;;;;;5093795;28;20720;-42
2022/06/05 11:08:28;;;;;;;8.57;7.87;;;20.10;99.90;;;;;;5093952;28;20281;-40
2022/06/05 11:14:11;;;;;;;8.37;7.67;;;20.40;99.90;;;;;;5093507;28;20547;-42
2022/06/05 11:16:47;;;;;;;9.30;8.37;;;20.60;99.90;;;;;;5093778;28;20261;-43
2022/06/05 11:19:53;;;;;;;9.13;8.23;;;20.90;99.90;;;;;;5093743;28;20194;-43
2022/06/05 11:22:21;;;;;;;8.93;8.03;;;21.10;99.90;;;;;;5093804;28;20266;-43
2022/06/05 11:25:12;;;;;;;8.60;7.80;;;21.30;99.90;;;;;;5093454;28;20201;-42
2022/06/05 11:27:52;;;;;;;8.93;8.13;;;21.40;99.90;;;;;;5055667;28;20183;-42
2022/06/05 11:30:29;;;;;;;9.13;8.23;;;21.60;99.90;;;;;;5093923;28;20241;-42
2022/06/05 11:33:20;;;;;;;8.47;7.23;;;21.80;99.90;;;;;;5093800;28;20159;-42
2022/06/05 11:36:08;;;;;;;6.93;6.20;;;22.00;99.90;;;;;;5093772;28;20236;-43
2022/06/05 11:38:44;;;;;;;6.37;5.70;;;22.20;99.90;;;;;;5093952;28;20194;-41
2022/06/05 11:41:41;;;;;;;6.47;5.37;;;22.30;99.90;;;;;;5093505;28;20650;-43
2022/06/05 11:44:26;;;;;;;7.63;6.13;;;22.50;99.90;;;;;;5093653;28;20202;-42
2022/06/05 11:47:03;;;;;;;7.73;6.93;;;22.70;99.90;;;;;;5093824;28;20603;-42
2022/06/05 11:49:49;;;;;;;7.87;7.17;;;22.90;99.90;;;;;;5093436;28;20217;-43
2022/06/05 11:52:36;;;;;;;6.60;6.00;;;22.90;99.90;;;;;;5093571;28;20170;-42
2022/06/05 11:55:13;;;;;;;7.10;6.30;;;22.90;99.90;;;;;;5093567;28;20186;-41
2022/06/05 11:58:01;;;;;;;7.30;6.53;;;23.10;99.90;;;;;;5093227;28;20155;-42
2022/06/05 12:00:32;;;;;;;6.83;6.13;;;23.20;99.90;;;;;;5093034;28;20206;-41
2022/06/05 12:03:28;;;;;;;9.63;7.30;;;23.30;99.90;;;;;;5093467;28;20208;-44
2022/06/05 12:06:14;;;;;;;9.33;7.37;;;23.30;99.90;;;;;;5093244;28;20167;-42
2022/06/05 12:08:47;;;;;;;9.23;5.83;;;23.60;99.90;;;;;;5093010;28;20191;-43
2022/06/05 12:11:20;;;;;;;9.07;5.60;;;23.70;99.90;;;;;;5093098;28;20163;-43
2022/06/05 12:13:59;;;;;;;7.73;6.63;;;23.70;99.90;;;;;;5093338;28;20668;-43
2022/06/05 12:16:45;;;;;;;7.07;6.10;;;23.80;99.90;;;;;;5093332;28;20164;-45
2022/06/05 12:19:23;;;;;;;6.80;5.90;;;23.90;99.90;;;;;;5093290;28;20678;-42
2022/06/05 12:22:05;;;;;;;10.63;6.80;;;23.90;99.90;;;;;;5093428;28;20159;-43
2022/06/05 12:24:42;;;;;;;7.97;6.67;;;24.00;99.90;;;;;;5093027;28;20705;-41
2022/06/05 12:27:11;;;;;;;8.80;7.00;;;24.10;99.90;;;;;;5096545;28;20178;-42
2022/06/05 12:29:55;;;;;;;8.63;6.80;;;24.10;99.90;;;;;;5078449;28;20209;-43
2022/06/05 12:32:39;;;;;;;7.70;7.00;;;24.20;99.90;;;;;;5097054;28;20182;-43
2022/06/05 12:35:26;;;;;;;7.30;6.60;;;24.10;99.90;;;;;;5096756;28;20167;-43
2022/06/05 12:38:03;;;;;;;7.57;6.17;;;24.00;99.90;;;;;;5096772;28;20252;-41
2022/06/05 12:40:36;;;;;;;6.67;5.57;;;24.00;99.90;;;;;;5096848;28;20537;-41
2022/06/05 12:43:19;;;;;;;6.37;5.07;;;23.90;99.90;;;;;;5096845;28;20285;-44
2022/06/05 12:45:47;;;;;;;5.00;4.50;;;23.90;99.90;;;;;;5097193;28;20167;-43
2022/06/05 12:48:24;;;;;;;5.50;5.00;;;23.90;99.90;;;;;;5078048;28;20203;-42
2022/06/05 12:51:06;;;;;;;6.03;5.53;;;23.90;99.90;;;;;;5096635;28;20670;-43
2022/06/05 12:53:37;;;;;;;5.70;5.30;;;23.90;99.90;;;;;;5096585;28;20650;-44
2022/06/05 12:56:34;;;;;;;6.87;6.27;;;23.80;99.90;;;;;;5077962;28;20186;-44
2022/06/05 12:59:25;;;;;;;6.10;5.57;;;23.70;99.90;;;;;;5096418;28;20205;-43
2022/06/05 13:01:50;;;;;;;7.30;5.63;;;23.60;99.90;;;;;;5096322;28;20195;-44
2022/06/05 13:04:36;;;;;;;6.63;5.90;;;23.50;99.90;;;;;;5095993;28;20269;-43
2022/06/05 13:07:14;;;;;;;6.20;5.70;;;23.40;99.90;;;;;;5096135;28;20633;-44
2022/06/05 13:09:51;;;;;;;6.13;5.60;;;23.30;99.90;;;;;;5096225;28;20263;-44
2022/06/05 13:12:29;;;;;;;6.07;5.57;;;23.30;99.90;;;;;;5096391;28;20170;-45
2022/06/05 13:15:21;;;;;;;6.60;5.93;;;23.30;99.90;;;;;;5096225;28;20170;-44
2022/06/05 13:18:06;;;;;;;6.37;5.77;;;23.30;99.90;;;;;;5096033;28;20195;-43
2022/06/05 13:20:50;;;;;;;5.67;5.10;;;23.10;99.90;;;;;;5095922;28;20229;-44
2022/06/05 13:23:53;;;;;;;5.87;5.30;;;23.10;99.90;;;;;;5096014;28;20680;-41
2022/06/05 13:26:51;;;;;;;5.83;5.33;;;22.90;99.90;;;;;;5096637;28;20634;-42
2022/06/05 13:29:45;;;;;;;6.03;5.50;;;22.60;99.90;;;;;;5077415;28;20579;-43
2022/06/05 13:32:32;;;;;;;6.40;5.80;;;22.40;99.90;;;;;;5095901;28;20151;-43
2022/06/05 13:35:13;;;;;;;6.07;5.57;;;22.30;99.90;;;;;;5095787;28;20300;-43
2022/06/05 13:38:07;;;;;;;6.93;6.23;;;22.10;99.90;;;;;;5094535;28;20235;-44